createdAt,value
2019-01-31T00:01:35.746Z,23.37
2019-01-31T00:07:06.093Z,25.60
2019-01-31T00:12:36.741Z,21.97
2019-01-31T00:18:14.358Z,21.50
2019-01-31T00:24:00.267Z,20.77
2019-01-31T00:29:48.119Z,19.90
2019-01-31T00:35:36.591Z,26.87
2019-01-31T00:41:02.871Z,22.60
2019-01-31T00:46:56.121Z,23.10
2019-01-31T00:52:42.953Z,22.40
2019-01-31T00:58:07.900Z,25.23
2019-01-31T01:03:45.689Z,23.47
2019-01-31T01:09:18.422Z,24.47
2019-01-31T01:15:06.546Z,23.23
2019-01-31T01:20:46.247Z,24.57
2019-01-31T01:26:39.084Z,27.00
2019-01-31T01:32:01.949Z,25.73
2019-01-31T01:37:33.832Z,23.30
2019-01-31T01:42:59.669Z,25.47
2019-01-31T01:48:47.526Z,27.70
2019-01-31T01:54:26.471Z,21.83
2019-01-31T01:59:53.535Z,23.03
2019-01-31T02:05:45.899Z,24.30
2019-01-31T02:11:21.169Z,26.17
2019-01-31T02:17:15.154Z,25.23
2019-01-31T02:22:29.245Z,23.07
2019-01-31T02:27:59.502Z,23.50
2019-01-31T02:33:53.559Z,22.90
2019-01-31T02:39:53.146Z,24.47
2019-01-31T02:45:50.055Z,21.30
2019-01-31T02:51:17.917Z,23.23
2019-01-31T02:57:04.058Z,22.93
2019-01-31T03:02:25.658Z,22.60
2019-01-31T03:08:29.013Z,21.13
2019-01-31T03:14:10.187Z,19.67
2019-01-31T03:19:46.544Z,23.47
2019-01-31T03:25:25.446Z,20.97
2019-01-31T03:31:28.352Z,25.00
2019-01-31T03:37:11.381Z,21.77
2019-01-31T03:43:14.399Z,21.70
2019-01-31T03:48:35.529Z,24.13
2019-01-31T03:54:04.440Z,63.83
2019-01-31T03:59:32.145Z,21.37
2019-01-31T04:04:50.032Z,20.30
2019-01-31T04:09:56.489Z,20.33
2019-01-31T04:14:59.956Z,19.43
2019-01-31T04:20:03.543Z,17.27
2019-01-31T04:25:09.822Z,16.73
2019-01-31T04:30:15.574Z,18.13
2019-01-31T04:35:18.893Z,17.57
2019-01-31T04:40:30.929Z,17.63
2019-01-31T04:45:40.140Z,18.70
2019-01-31T04:50:46.310Z,18.50
2019-01-31T04:55:52.718Z,20.80
2019-01-31T05:00:55.997Z,24.27
2019-01-31T05:05:59.318Z,21.80
2019-01-31T05:11:02.881Z,21.17
2019-01-31T05:16:06.423Z,23.47
2019-01-31T05:21:09.733Z,21.27
2019-01-31T05:26:13.145Z,25.93
2019-01-31T05:31:16.557Z,24.83
2019-01-31T05:36:19.922Z,29.00
2019-01-31T05:41:23.243Z,27.53
2019-01-31T05:46:26.621Z,27.30
2019-01-31T05:51:35.867Z,26.60
2019-01-31T05:56:39.181Z,25.97
2019-01-31T06:01:42.506Z,26.27
2019-01-31T06:06:46.079Z,27.80
2019-01-31T06:11:49.416Z,29.87
2019-01-31T06:16:52.531Z,29.50
2019-01-31T06:21:55.909Z,24.17
2019-01-31T06:27:07.991Z,23.60
2019-01-31T06:32:14.511Z,28.03
2019-01-31T06:37:17.948Z,28.10
2019-01-31T06:42:21.180Z,26.77
2019-01-31T06:47:24.595Z,28.00
2019-01-31T06:52:28.161Z,25.67
2019-01-31T06:57:31.676Z,28.03
2019-01-31T07:02:35.192Z,28.40
2019-01-31T07:07:40.881Z,24.63
2019-01-31T07:12:44.202Z,25.20
2019-01-31T07:17:47.680Z,27.90
2019-01-31T07:22:58.056Z,25.83
2019-01-31T07:28:01.494Z,25.30
2019-01-31T07:33:06.292Z,26.07
2019-01-31T07:38:09.676Z,26.17
2019-01-31T07:43:12.985Z,28.10
2019-01-31T07:48:21.856Z,24.77
2019-01-31T07:53:28.089Z,28.97
2019-01-31T07:58:31.573Z,25.63
2019-01-31T08:03:34.801Z,27.37
2019-01-31T08:08:47.104Z,25.07
2019-01-31T08:13:50.998Z,25.63
2019-01-31T08:18:54.368Z,25.53
2019-01-31T08:23:59.930Z,25.93
2019-01-31T08:29:03.258Z,27.43
2019-01-31T08:34:13.074Z,25.47
2019-01-31T08:39:16.411Z,25.10
2019-01-31T08:44:20.024Z,23.90
2019-01-31T08:49:23.334Z,25.73
2019-01-31T08:54:26.675Z,27.20
2019-01-31T08:59:30.141Z,23.60
2019-01-31T09:04:33.548Z,21.87
2019-01-31T09:09:42.902Z,26.13
2019-01-31T09:14:46.139Z,22.10
2019-01-31T09:19:51.130Z,22.90
2019-01-31T09:25:09.852Z,22.13
2019-01-31T09:30:59.941Z,24.73
2019-01-31T09:36:25.162Z,23.27
2019-01-31T09:42:01.542Z,23.70
2019-01-31T09:47:47.867Z,24.90
2019-01-31T09:53:48.009Z,25.43
2019-01-31T09:59:27.364Z,26.80
2019-01-31T10:04:46.343Z,23.77
2019-01-31T10:10:43.151Z,23.00
2019-01-31T10:16:23.685Z,23.50
2019-01-31T10:22:04.580Z,21.60
2019-01-31T10:27:55.400Z,25.50
2019-01-31T10:33:36.099Z,27.77
2019-01-31T10:39:13.811Z,21.87
2019-01-31T10:44:45.279Z,22.87
2019-01-31T10:50:26.067Z,21.47
2019-01-31T10:55:44.186Z,17.57
2019-01-31T11:01:47.206Z,22.73
2019-01-31T11:07:42.156Z,20.10
2019-01-31T11:13:06.277Z,24.73
2019-01-31T11:19:15.615Z,19.77
2019-01-31T11:24:47.212Z,15.53
2019-01-31T11:30:56.342Z,16.40
2019-01-31T11:36:31.499Z,13.93
2019-01-31T11:41:59.795Z,14.30
2019-01-31T11:47:33.318Z,17.43
2019-01-31T11:53:24.142Z,15.30
2019-01-31T11:59:16.483Z,13.77
2019-01-31T12:04:23.085Z,11.67
2019-01-31T12:09:27.116Z,12.33
2019-01-31T12:14:30.939Z,9.70
2019-01-31T12:19:39.660Z,9.37
2019-01-31T12:24:43.397Z,8.67
2019-01-31T12:29:54.327Z,9.37
2019-01-31T12:34:57.634Z,8.23
2019-01-31T12:40:01.420Z,8.30
2019-01-31T12:45:06.674Z,7.37
2019-01-31T12:50:24.443Z,8.00
2019-01-31T12:55:35.309Z,9.60
2019-01-31T13:00:38.823Z,7.40
2019-01-31T13:05:42.260Z,7.00
2019-01-31T13:10:45.574Z,8.77
2019-01-31T13:15:52.066Z,12.27
2019-01-31T13:20:55.378Z,7.63
2019-01-31T13:26:01.870Z,9.67
2019-01-31T13:31:05.175Z,9.70
2019-01-31T13:36:15.139Z,8.10
2019-01-31T13:41:18.550Z,7.33
2019-01-31T13:46:22.229Z,7.93
2019-01-31T13:51:25.484Z,6.50
2019-01-31T13:56:28.902Z,6.83
2019-01-31T14:01:32.188Z,7.77
2019-01-31T14:06:35.521Z,7.73
2019-01-31T14:11:38.990Z,7.20
2019-01-31T14:16:47.683Z,6.60
2019-01-31T14:21:47.606Z,6.90
2019-01-31T14:26:50.863Z,6.73
2019-01-31T14:31:54.133Z,6.73
2019-01-31T14:36:57.422Z,11.33
2019-01-31T14:42:01.101Z,8.43
2019-01-31T14:47:04.718Z,5.77
2019-01-31T14:52:25.337Z,7.53
2019-01-31T14:57:28.852Z,7.90
2019-01-31T15:02:32.368Z,8.07
2019-01-31T15:07:35.712Z,7.87
2019-01-31T15:12:39.147Z,8.00
2019-01-31T15:17:42.426Z,6.90
2019-01-31T15:22:45.927Z,7.10
2019-01-31T15:27:52.094Z,5.70
2019-01-31T15:32:55.467Z,6.73
2019-01-31T15:38:01.787Z,6.70
2019-01-31T15:43:05.945Z,7.37
2019-01-31T15:48:10.737Z,6.63
2019-01-31T15:53:14.334Z,6.70
2019-01-31T15:58:19.356Z,10.67
2019-01-31T16:03:23.825Z,6.23
2019-01-31T16:08:30.145Z,6.00
2019-01-31T16:13:35.240Z,7.57
2019-01-31T16:18:40.391Z,9.50
2019-01-31T16:23:43.867Z,7.30
2019-01-31T16:28:50.182Z,13.47
2019-01-31T16:33:53.660Z,12.33
2019-01-31T16:38:57.175Z,9.53
2019-01-31T16:44:03.593Z,9.23
2019-01-31T16:49:07.928Z,7.43
2019-01-31T16:54:11.410Z,7.70
2019-01-31T16:59:16.322Z,7.10
2019-01-31T17:04:19.704Z,6.57
2019-01-31T17:09:24.922Z,7.20
2019-01-31T17:14:33.904Z,8.17
2019-01-31T17:19:37.482Z,6.33
2019-01-31T17:24:41.003Z,6.67
2019-01-31T17:29:44.920Z,7.10
2019-01-31T17:34:48.438Z,6.73
2019-01-31T17:39:51.928Z,6.80
2019-01-31T17:44:55.100Z,7.07
2019-01-31T17:49:58.575Z,9.87
2019-01-31T17:55:01.986Z,9.73
2019-01-31T18:00:12.210Z,11.27
2019-01-31T18:05:15.736Z,11.17
2019-01-31T18:10:20.009Z,9.10
2019-01-31T18:15:23.635Z,12.83
2019-01-31T18:20:29.985Z,14.67
2019-01-31T18:25:35.695Z,9.27
2019-01-31T18:30:39.030Z,8.50
2019-01-31T18:35:42.243Z,7.77
2019-01-31T18:40:45.633Z,8.20
2019-01-31T18:45:53.557Z,9.07
2019-01-31T18:50:57.086Z,7.73
2019-01-31T18:56:00.375Z,8.97
2019-01-31T19:01:05.854Z,7.90
2019-01-31T19:06:09.397Z,8.83
2019-01-31T19:11:14.072Z,8.07
2019-01-31T19:16:19.776Z,7.03
2019-01-31T19:21:22.610Z,6.80
2019-01-31T19:26:25.442Z,8.27
2019-01-31T19:31:28.980Z,7.67
2019-01-31T19:36:32.467Z,9.67
2019-01-31T19:41:37.756Z,10.70
2019-01-31T19:46:41.541Z,9.07
2019-01-31T19:51:44.703Z,7.80
2019-01-31T19:56:51.195Z,9.80
2019-01-31T20:01:54.585Z,9.60
2019-01-31T20:07:23.864Z,9.70
2019-01-31T20:12:28.932Z,10.13
2019-01-31T20:17:32.201Z,9.30
2019-01-31T20:22:35.464Z,10.00
2019-01-31T20:27:38.883Z,9.13
2019-01-31T20:32:43.956Z,12.83
2019-01-31T20:37:50.380Z,15.90
2019-01-31T20:42:53.999Z,11.13
2019-01-31T20:47:57.616Z,11.57
2019-01-31T20:53:07.505Z,11.00
2019-01-31T20:58:10.846Z,12.23
2019-01-31T21:03:16.999Z,11.80
2019-01-31T21:08:23.404Z,11.37
2019-01-31T21:13:26.690Z,11.90
2019-01-31T21:18:30.026Z,11.00
2019-01-31T21:23:35.023Z,12.63
2019-01-31T21:28:41.611Z,12.60
2019-01-31T21:33:44.987Z,11.57
2019-01-31T21:38:48.469Z,12.70
2019-01-31T21:43:51.952Z,12.97
2019-01-31T21:48:55.515Z,13.17
2019-01-31T21:54:01.747Z,13.17
2019-01-31T21:59:09.765Z,17.53
2019-01-31T22:04:13.345Z,14.53
2019-01-31T22:09:16.618Z,15.27
2019-01-31T22:14:22.799Z,13.43
2019-01-31T22:19:29.355Z,15.10
2019-01-31T22:24:38.960Z,13.90
2019-01-31T22:29:42.377Z,13.83
2019-01-31T22:34:45.713Z,16.60
2019-01-31T22:39:50.379Z,15.20
2019-01-31T22:44:55.247Z,14.70
2019-01-31T22:49:58.584Z,14.53
2019-01-31T22:55:01.979Z,15.57
2019-01-31T23:00:52.160Z,15.00
2019-01-31T23:05:55.675Z,20.50
2019-01-31T23:10:59.036Z,17.07
2019-01-31T23:16:04.591Z,15.67
2019-01-31T23:21:13.698Z,15.57
2019-01-31T23:26:16.958Z,14.97
2019-01-31T23:31:20.256Z,15.10
2019-01-31T23:36:23.356Z,18.83
2019-01-31T23:41:26.733Z,17.40
2019-01-31T23:46:30.064Z,18.17
2019-01-31T23:51:33.453Z,17.47
2019-01-31T23:56:36.968Z,17.87
